createdAt,value
2022-10-21T00:04:41.807Z,48.00
2022-10-21T00:09:43.652Z,41.70
2022-10-21T00:14:45.445Z,34.70
2022-10-21T00:19:47.310Z,35.20
2022-10-21T00:24:49.258Z,40.20
2022-10-21T00:29:50.979Z,50.20
2022-10-21T00:34:53.019Z,47.30
2022-10-21T00:39:55.103Z,46.30
2022-10-21T00:45:09.177Z,46.80
2022-10-21T00:50:32.648Z,47.60
2022-10-21T00:55:39.607Z,42.10
2022-10-21T01:00:41.481Z,39.00
2022-10-21T01:05:44.677Z,38.70
2022-10-21T01:10:47.730Z,35.70
2022-10-21T01:16:04.779Z,38.60
2022-10-21T01:21:15.680Z,39.70
2022-10-21T01:26:38.569Z,38.60
2022-10-21T01:31:50.757Z,36.30
2022-10-21T01:37:17.440Z,38.20
2022-10-21T01:42:35.144Z,33.80
2022-10-21T01:47:42.381Z,33.70
2022-10-21T01:53:03.448Z,38.70
2022-10-21T01:58:29.007Z,32.70
2022-10-21T02:03:35.085Z,34.00
2022-10-21T02:08:37.142Z,33.60
2022-10-21T02:13:51.578Z,35.20
2022-10-21T02:18:55.539Z,36.90
2022-10-21T02:24:02.976Z,37.00
2022-10-21T02:29:05.155Z,34.30
2022-10-21T02:34:30.174Z,37.60
2022-10-21T02:39:41.313Z,37.50
2022-10-21T02:44:43.066Z,38.30
2022-10-21T02:49:46.138Z,38.10
2022-10-21T02:54:48.093Z,35.90
2022-10-21T02:59:50.033Z,32.60
2022-10-21T03:04:51.939Z,32.70
2022-10-21T03:09:53.813Z,34.00
2022-10-21T03:14:55.593Z,35.90
2022-10-21T03:19:57.465Z,33.50
2022-10-21T03:24:59.401Z,37.20
2022-10-21T03:30:01.446Z,36.10
2022-10-21T03:35:17.505Z,34.90
2022-10-21T03:40:20.085Z,37.70
2022-10-21T03:45:21.820Z,35.90
2022-10-21T03:50:26.371Z,39.50
2022-10-21T03:55:28.996Z,37.70
2022-10-21T04:00:31.803Z,34.60
2022-10-21T04:05:34.349Z,38.10
2022-10-21T04:10:36.162Z,32.00
2022-10-21T04:15:38.146Z,38.40
2022-10-21T04:20:39.953Z,36.20
2022-10-21T04:25:44.674Z,33.30
2022-10-21T04:30:57.809Z,34.10
2022-10-21T04:35:59.750Z,32.90
2022-10-21T04:41:03.632Z,33.70
2022-10-21T04:46:12.025Z,35.40
2022-10-21T04:51:14.205Z,34.20
2022-10-21T04:56:16.202Z,32.80
2022-10-21T05:01:17.960Z,32.40
2022-10-21T05:06:40.422Z,31.60
2022-10-21T05:11:49.173Z,32.60
2022-10-21T05:16:50.955Z,35.70
2022-10-21T05:21:59.427Z,33.00
2022-10-21T05:27:07.838Z,37.70
2022-10-21T05:32:09.634Z,34.30
2022-10-21T05:37:11.365Z,39.00
2022-10-21T05:42:13.373Z,42.50
2022-10-21T05:47:15.542Z,45.40
2022-10-21T05:52:17.267Z,49.70
2022-10-21T05:57:19.049Z,50.10
2022-10-21T06:02:20.967Z,45.20
2022-10-21T06:07:22.992Z,40.30
2022-10-21T06:12:25.378Z,37.20
2022-10-21T06:17:37.965Z,40.00
2022-10-21T06:22:40.000Z,42.30
2022-10-21T06:27:41.961Z,51.20
2022-10-21T06:32:43.868Z,56.20
2022-10-21T06:37:45.813Z,50.50
2022-10-21T06:43:08.453Z,48.40
2022-10-21T06:48:23.885Z,51.30
2022-10-21T06:53:26.218Z,52.20
2022-10-21T06:58:28.103Z,49.80
2022-10-21T07:03:30.101Z,49.30
2022-10-21T07:08:46.537Z,50.70
2022-10-21T07:13:55.809Z,44.70
2022-10-21T07:18:58.361Z,37.30
2022-10-21T07:24:00.880Z,26.90
2022-10-21T07:29:03.137Z,28.90
2022-10-21T07:34:08.136Z,22.00
2022-10-21T07:39:14.189Z,22.80
2022-10-21T07:44:17.306Z,21.90
2022-10-21T07:49:20.743Z,19.00
2022-10-21T07:54:23.145Z,20.80
2022-10-21T07:59:25.127Z,23.70
2022-10-21T08:04:29.913Z,19.50
2022-10-21T08:09:31.939Z,21.40
2022-10-21T08:14:34.557Z,19.40
2022-10-21T08:19:36.633Z,16.70
2022-10-21T08:24:41.532Z,17.70
2022-10-21T08:29:44.480Z,16.50
2022-10-21T08:34:46.258Z,17.20
2022-10-21T08:39:48.236Z,17.80
2022-10-21T08:45:03.218Z,16.30
2022-10-21T08:50:13.684Z,16.80
2022-10-21T08:55:22.301Z,21.00
2022-10-21T09:00:31.143Z,20.40
2022-10-21T09:05:45.498Z,25.40
2022-10-21T09:11:19.988Z,22.60
2022-10-21T09:16:33.695Z,20.50
2022-10-21T09:21:40.518Z,19.90
2022-10-21T09:26:45.812Z,23.60
2022-10-21T09:31:54.344Z,17.10
2022-10-21T09:37:00.715Z,20.20
2022-10-21T09:42:29.226Z,18.90
2022-10-21T09:47:34.954Z,19.30
2022-10-21T09:52:38.458Z,19.80
2022-10-21T09:57:47.042Z,21.70
2022-10-21T10:02:49.808Z,22.00
2022-10-21T10:07:51.906Z,22.70
2022-10-21T10:13:01.681Z,21.80
2022-10-21T10:18:05.157Z,19.80
2022-10-21T10:23:09.929Z,19.60
2022-10-21T10:28:11.718Z,20.30
2022-10-21T10:33:22.050Z,21.90
2022-10-21T10:38:29.388Z,19.70
2022-10-21T10:48:48.637Z,17.70
2022-10-21T10:54:01.639Z,16.70
2022-10-21T10:59:28.531Z,16.80
2022-10-21T11:05:04.238Z,18.80
2022-10-21T11:10:37.205Z,18.80
2022-10-21T11:15:57.228Z,14.90
2022-10-21T11:21:37.418Z,13.90
2022-10-21T11:26:52.565Z,12.20
2022-10-21T11:32:32.517Z,8.80
2022-10-21T11:38:06.611Z,10.30
2022-10-21T11:43:26.857Z,9.50
2022-10-21T11:48:31.804Z,8.60
2022-10-21T11:54:03.410Z,9.40
2022-10-21T11:59:35.358Z,9.10
2022-10-21T12:04:51.372Z,8.70
2022-10-21T12:10:10.163Z,9.70
2022-10-21T12:15:27.137Z,9.10
2022-10-21T12:20:29.262Z,9.20
2022-10-21T12:26:14.297Z,9.90
2022-10-21T12:31:45.495Z,8.30
2022-10-21T12:36:50.952Z,9.30
2022-10-21T12:42:14.486Z,8.80
2022-10-21T12:47:34.910Z,7.90
2022-10-21T12:52:40.332Z,8.90
2022-10-21T12:57:43.516Z,9.30
2022-10-21T13:03:05.640Z,8.50
2022-10-21T13:08:22.877Z,10.20
2022-10-21T13:13:38.919Z,10.90
2022-10-21T13:18:58.017Z,9.60
2022-10-21T13:24:25.494Z,9.70
2022-10-21T13:29:37.177Z,10.00
2022-10-21T13:34:43.223Z,10.90
2022-10-21T13:39:51.864Z,11.80
2022-10-21T13:45:29.559Z,10.90
2022-10-21T13:50:38.564Z,7.70
2022-10-21T13:55:40.405Z,10.60
2022-10-21T14:00:42.345Z,10.20
2022-10-21T14:05:55.265Z,8.70
2022-10-21T14:11:12.526Z,10.40
2022-10-21T14:16:22.411Z,10.40
2022-10-21T14:21:27.813Z,9.30
2022-10-21T14:26:34.673Z,10.20
2022-10-21T14:31:36.516Z,12.10
2022-10-21T14:37:00.872Z,12.30
2022-10-21T14:42:08.959Z,12.30
2022-10-21T14:47:24.018Z,10.30
2022-10-21T14:52:53.537Z,10.40
2022-10-21T14:58:07.799Z,11.30
2022-10-21T15:03:12.282Z,11.00
2022-10-21T15:08:20.400Z,12.20
2022-10-21T15:13:22.907Z,10.50
2022-10-21T15:18:28.990Z,21.20
2022-10-21T15:23:41.272Z,18.70
2022-10-21T15:28:43.312Z,15.20
2022-10-21T15:33:45.376Z,13.90
2022-10-21T15:38:48.835Z,11.10
2022-10-21T15:44:09.553Z,30.80
2022-10-21T15:49:34.572Z,18.10
2022-10-21T15:54:47.418Z,18.40
2022-10-21T15:59:49.385Z,13.10
2022-10-21T16:04:53.620Z,17.60
2022-10-21T16:09:56.717Z,13.80
2022-10-21T16:15:46.458Z,13.80
2022-10-21T16:20:48.917Z,26.70
2022-10-21T16:25:50.995Z,16.60
2022-10-21T16:30:53.795Z,19.80
2022-10-21T16:35:55.880Z,16.00
2022-10-21T16:41:21.614Z,17.00
2022-10-21T16:46:39.761Z,12.10
2022-10-21T16:51:46.258Z,15.60
2022-10-21T16:56:48.785Z,19.50
2022-10-21T17:02:06.517Z,18.80
2022-10-21T17:07:17.284Z,13.60
2022-10-21T17:12:19.266Z,20.30
2022-10-21T17:17:22.476Z,14.00
2022-10-21T17:22:24.601Z,11.90
2022-10-21T17:27:26.533Z,14.20
2022-10-21T17:32:29.831Z,11.20
2022-10-21T17:37:32.235Z,13.20
2022-10-21T17:42:34.270Z,11.50
2022-10-21T17:47:50.535Z,11.10
2022-10-21T17:52:54.544Z,10.60
2022-10-21T17:57:56.728Z,9.40
2022-10-21T18:02:59.099Z,13.20
2022-10-21T18:08:00.958Z,11.70
2022-10-21T18:13:04.423Z,12.60
2022-10-21T18:18:06.711Z,13.30
2022-10-21T18:23:08.490Z,15.80
2022-10-21T18:28:10.935Z,11.50
2022-10-21T18:33:12.841Z,13.20
2022-10-21T18:38:14.917Z,11.50
2022-10-21T18:43:17.323Z,16.30
2022-10-21T18:48:25.879Z,14.60
2022-10-21T18:53:27.720Z,14.90
2022-10-21T18:58:31.227Z,18.00
2022-10-21T19:03:33.451Z,18.80
2022-10-21T19:08:35.441Z,16.10
2022-10-21T19:13:37.445Z,15.70
2022-10-21T19:18:39.438Z,13.20
2022-10-21T19:23:41.367Z,16.90
2022-10-21T19:28:45.219Z,14.70
2022-10-21T19:33:47.499Z,15.70
2022-10-21T19:38:49.543Z,15.00
2022-10-21T19:43:54.718Z,20.20
2022-10-21T19:49:05.995Z,20.50
2022-10-21T19:54:11.973Z,16.60
2022-10-21T19:59:13.856Z,16.40
2022-10-21T20:04:16.317Z,17.60
2022-10-21T20:09:20.678Z,17.10
2022-10-21T20:14:22.557Z,18.00
2022-10-21T20:19:24.945Z,15.70
2022-10-21T20:24:26.925Z,16.60
2022-10-21T20:29:29.309Z,16.70
2022-10-21T20:34:34.198Z,17.00
2022-10-21T20:39:41.257Z,14.20
2022-10-21T20:44:43.242Z,14.40
2022-10-21T20:49:45.215Z,12.70
2022-10-21T20:54:47.608Z,14.20
2022-10-21T20:59:49.424Z,12.90
2022-10-21T21:04:51.362Z,10.20
2022-10-21T21:10:02.059Z,11.80
2022-10-21T21:15:09.403Z,13.80
2022-10-21T21:20:11.387Z,12.30
2022-10-21T21:25:13.353Z,11.30
2022-10-21T21:30:15.568Z,12.10
2022-10-21T21:35:17.571Z,12.00
2022-10-21T21:40:19.555Z,10.40
2022-10-21T21:45:28.442Z,9.80
2022-10-21T21:50:46.422Z,9.30
2022-10-21T21:55:48.463Z,10.50
2022-10-21T22:00:50.395Z,13.30
2022-10-21T22:05:52.282Z,11.90
2022-10-21T22:10:54.153Z,10.50
2022-10-21T22:15:55.850Z,11.80
2022-10-21T22:21:03.248Z,11.10
2022-10-21T22:26:07.035Z,10.10
2022-10-21T22:31:12.396Z,9.90
2022-10-21T22:36:16.809Z,9.20
2022-10-21T22:41:18.845Z,9.40
2022-10-21T22:46:33.388Z,8.60
2022-10-21T22:51:36.281Z,9.50
2022-10-21T22:56:38.501Z,9.00
2022-10-21T23:01:40.322Z,10.00
2022-10-21T23:06:42.151Z,10.00
2022-10-21T23:11:47.366Z,8.90
2022-10-21T23:16:53.271Z,9.50
2022-10-21T23:21:55.160Z,9.80
2022-10-21T23:26:59.152Z,9.30
2022-10-21T23:32:06.791Z,10.20
2022-10-21T23:37:08.842Z,9.20
2022-10-21T23:42:10.721Z,8.20
2022-10-21T23:47:12.742Z,9.70
2022-10-21T23:52:14.640Z,8.80
2022-10-21T23:57:16.464Z,9.50
